sensor_id;sensor_type;location;lat;lon;timestamp;P1;P2;P0
79317;PMS7003;68779;50.036;19.964;2023-03-23T00:09:39;16;15;11
79317;PMS7003;68779;50.036;19.964;2023-03-23T00:24:46;18;16;12
79317;PMS7003;68779;50.036;19.964;2023-03-23T00:39:57;16;15;11
79317;PMS7003;68779;50.036;19.964;2023-03-23T00:55:06;14;14;9
79317;PMS7003;68779;50.036;19.964;2023-03-23T01:10:19;12;10;9
79317;PMS7003;68779;50.036;19.964;2023-03-23T01:25:27;10;10;7
79317;PMS7003;68779;50.036;19.964;2023-03-23T01:40:33;17;16;12
79317;PMS7003;68779;50.036;19.964;2023-03-23T01:55:40;14;14;11
79317;PMS7003;68779;50.036;19.964;2023-03-23T02:10:52;22;20;15
79317;PMS7003;68779;50.036;19.964;2023-03-23T02:41:22;25;24;16
79317;PMS7003;68779;50.036;19.964;2023-03-23T02:56:32;25;24;16
79317;PMS7003;68779;50.036;19.964;2023-03-23T03:11:42;20;19;13
79317;PMS7003;68779;50.036;19.964;2023-03-23T03:26:53;19;18;13
79317;PMS7003;68779;50.036;19.964;2023-03-23T03:42:03;16;14;10
79317;PMS7003;68779;50.036;19.964;2023-03-23T03:57:09;14;14;10
79317;PMS7003;68779;50.036;19.964;2023-03-23T04:12:20;13;13;9
79317;PMS7003;68779;50.036;19.964;2023-03-23T04:27:25;13;12;8
79317;PMS7003;68779;50.036;19.964;2023-03-23T04:42:34;12;11;8
79317;PMS7003;68779;50.036;19.964;2023-03-23T04:57:45;11;10;8
79317;PMS7003;68779;50.036;19.964;2023-03-23T05:12:52;14;12;9
79317;PMS7003;68779;50.036;19.964;2023-03-23T05:28:01;13;12;9
79317;PMS7003;68779;50.036;19.964;2023-03-23T05:43:10;12;11;8
79317;PMS7003;68779;50.036;19.964;2023-03-23T05:58:23;12;12;8
79317;PMS7003;68779;50.036;19.964;2023-03-23T06:13:32;16;15;12
79317;PMS7003;68779;50.036;19.964;2023-03-23T06:28:39;16;15;11
79317;PMS7003;68779;50.036;19.964;2023-03-23T06:43:50;10;10;9
79317;PMS7003;68779;50.036;19.964;2023-03-23T06:59:05;15;15;10
79317;PMS7003;68779;50.036;19.964;2023-03-23T07:14:14;10;10;7
79317;PMS7003;68779;50.036;19.964;2023-03-23T07:29:21;11;10;6
79317;PMS7003;68779;50.036;19.964;2023-03-23T07:44:27;9;9;7
79317;PMS7003;68779;50.036;19.964;2023-03-23T07:59:36;11;10;8
79317;PMS7003;68779;50.036;19.964;2023-03-23T08:14:43;10;9;8
79317;PMS7003;68779;50.036;19.964;2023-03-23T08:29:54;24;22;16
79317;PMS7003;68779;50.036;19.964;2023-03-23T08:45:03;8;8;6
79317;PMS7003;68779;50.036;19.964;2023-03-23T09:15:34;10;9;7
79317;PMS7003;68779;50.036;19.964;2023-03-23T09:30:41;8;7;6
79317;PMS7003;68779;50.036;19.964;2023-03-23T10:01:24;9;7;6
79317;PMS7003;68779;50.036;19.964;2023-03-23T10:16:46;6;6;5
79317;PMS7003;68779;50.036;19.964;2023-03-23T10:31:58;7;6;5
79317;PMS7003;68779;50.036;19.964;2023-03-23T11:02:31;4;4;3
79317;PMS7003;68779;50.036;19.964;2023-03-23T11:17:42;3;3;2
79317;PMS7003;68779;50.036;19.964;2023-03-23T11:32:50;4;3;3
79317;PMS7003;68779;50.036;19.964;2023-03-23T12:03:27;5;5;3
79317;PMS7003;68779;50.036;19.964;2023-03-23T13:04:37;4;4;4
79317;PMS7003;68779;50.036;19.964;2023-03-23T13:35:16;4;4;3
79317;PMS7003;68779;50.036;19.964;2023-03-23T13:50:27;3;3;2
79317;PMS7003;68779;50.036;19.964;2023-03-23T14:20:55;4;4;3
79317;PMS7003;68779;50.036;19.964;2023-03-23T14:36:03;3;3;2
79317;PMS7003;68779;50.036;19.964;2023-03-23T14:51:07;3;3;2
79317;PMS7003;68779;50.036;19.964;2023-03-23T15:06:27;3;3;2
79317;PMS7003;68779;50.036;19.964;2023-03-23T15:21:35;5;4;4
79317;PMS7003;68779;50.036;19.964;2023-03-23T15:36:52;5;5;4
79317;PMS7003;68779;50.036;19.964;2023-03-23T15:52:06;5;5;4
79317;PMS7003;68779;50.036;19.964;2023-03-23T16:07:20;5;5;4
79317;PMS7003;68779;50.036;19.964;2023-03-23T16:22:28;5;5;4
79317;PMS7003;68779;50.036;19.964;2023-03-23T16:37:35;6;6;5
79317;PMS7003;68779;50.036;19.964;2023-03-23T16:52:44;6;6;5
79317;PMS7003;68779;50.036;19.964;2023-03-23T17:07:51;8;8;6
79317;PMS7003;68779;50.036;19.964;2023-03-23T17:23:00;9;9;8
79317;PMS7003;68779;50.036;19.964;2023-03-23T17:38:11;10;9;7
79317;PMS7003;68779;50.036;19.964;2023-03-23T17:53:24;10;10;8
79317;PMS7003;68779;50.036;19.964;2023-03-23T18:08:29;12;10;8
79317;PMS7003;68779;50.036;19.964;2023-03-23T18:23:37;11;10;8
79317;PMS7003;68779;50.036;19.964;2023-03-23T18:54:23;13;13;10
79317;PMS7003;68779;50.036;19.964;2023-03-23T19:09:27;16;15;11
79317;PMS7003;68779;50.036;19.964;2023-03-23T19:24:30;16;15;12
79317;PMS7003;68779;50.036;19.964;2023-03-23T19:39:41;22;21;17
79317;PMS7003;68779;50.036;19.964;2023-03-23T19:54:51;20;19;14
79317;PMS7003;68779;50.036;19.964;2023-03-23T20:09:52;17;17;13
79317;PMS7003;68779;50.036;19.964;2023-03-23T20:25:02;16;15;11
79317;PMS7003;68779;50.036;19.964;2023-03-23T20:40:09;23;20;15
79317;PMS7003;68779;50.036;19.964;2023-03-23T20:55:19;19;18;13
79317;PMS7003;68779;50.036;19.964;2023-03-23T21:10:26;17;17;13
79317;PMS7003;68779;50.036;19.964;2023-03-23T21:25:41;14;13;11
79317;PMS7003;68779;50.036;19.964;2023-03-23T21:40:55;14;13;11
79317;PMS7003;68779;50.036;19.964;2023-03-23T21:56:00;15;14;11
79317;PMS7003;68779;50.036;19.964;2023-03-23T22:11:07;14;14;11
79317;PMS7003;68779;50.036;19.964;2023-03-23T22:26:16;14;13;10
79317;PMS7003;68779;50.036;19.964;2023-03-23T22:56:35;13;12;9
79317;PMS7003;68779;50.036;19.964;2023-03-23T23:11:40;13;13;10
79317;PMS7003;68779;50.036;19.964;2023-03-23T23:26:40;11;11;9
79317;PMS7003;68779;50.036;19.964;2023-03-23T23:41:48;12;12;9
79317;PMS7003;68779;50.036;19.964;2023-03-23T23:57:00;16;15;11
